Información del aeropuerto WABB

Información de pista
Pista 11 Longitud 11715 ft Anchura 150 ft
Elevación 36 ft Umbral 0 ft Rumbo 109
Pista 29 Longitud 11715 ft Anchura 150 ft
Elevación 25 ft Umbral 0 ft Rumbo 289
Frecuencias del aeropuerto
Tipo APP Nombre BIAK APP Frecuencia 121.2 MHZ
Tipo ATIS Nombre ATIS Frecuencia 126.5 MHZ
Tipo INFO Nombre BIAK INFO Frecuencia 295.6 MHZ
Tipo TWR Nombre TWR Frecuencia 118.1 MHZ
Radioayudas del aeropuerto
Tipo VOR-DME Nombre Biak Frecuencia 112500 KHZ
Tipo NDB Nombre Biak Frecuencia 230 KHZ
Información meteorológica del aeropuerto y NOTAM
ADDS - METARS form results

(0249 UTC 23 January 2022)
Data provider http://aviationweather.gov/metar/data/
 
METAR text: WABB 230230Z 34004KT 150V340 9999 FEW018 29/25 Q1008 NOSIG
Conditions at: WABB (BIAK/FRANS KAISI, ID) observed 0230 UTC 23 January 2022
Temperature: 29.0°C (84°F)
Dewpoint: 25.0°C (77°F) [RH = 79%]
Pressure (altimeter): 29.76 inches Hg (1008.0 mb)
Winds: from the NNW (340 degrees) at 5 MPH (4 knots; 2.1 m/s)
Visibility: 6 or more miles (10+ km)
Ceiling: at least 12,000 feet AGL
Clouds: few clouds at 1800 feet AGL
Weather: no significant weather observed at this time

METAR text: WABB 230200Z 34004KT 170V340 9999 FEW018 28/24 Q1008 NOSIG
Conditions at: WABB (BIAK/FRANS KAISI, ID) observed 0200 UTC 23 January 2022
Temperature: 28.0°C (82°F)
Dewpoint: 24.0°C (75°F) [RH = 79%]
Pressure (altimeter): 29.76 inches Hg (1008.0 mb)
Winds: from the NNW (340 degrees) at 5 MPH (4 knots; 2.1 m/s)
Visibility: 6 or more miles (10+ km)
Ceiling: at least 12,000 feet AGL
Clouds: few clouds at 1800 feet AGL
Weather: no significant weather observed at this time

Forecast for: WABB (BIAK/FRANS KAISI, ID)
Text: TAF WABB 222200Z 2300/2406 24004KT 9000 SCT018
Forecast period: 0000 UTC 23 January 2022 to 0600 UTC 24 January 2022
Forecast type: FROM: standard forecast or significant change
Winds: from the WSW (240 degrees) at 5 MPH (4 knots; 2.1 m/s)
Visibility: 6 miles (9 km)
Ceiling: at least 12,000 feet AGL
Clouds: scattered clouds at 1800 feet AGL
Weather: no significant weather forecast for this period
Text: TEMPO 2300/2303 6000 RA BKN018
Forecast period: 0000 to 0300 UTC 23 January 2022
Forecast type: TEMPORARY: The following changes expected for less than half the time period
Visibility: 4 miles (6 km)
Ceiling: 1800 feet AGL
Clouds: broken clouds at 1800 feet AGL
Weather: RA  (moderate rain)